Time;durP1;ratioP1;P1;durP2;ratioP2;P2;SDS_P1;SDS_P2;PMS_P1;PMS_P2;Temp;Humidity;BMP_temperature;BMP_pressure;BME280_temperature;BME280_humidity;BME280_pressure;Samples;Min_cycle;Max_cycle;Signal;HPM_P1;HPM_P2
2022/03/31 00:01:02;;;;;;;24.43;12.47;;;16.50;52.60;;;;;;4985537;28;20201;-76
2022/03/31 00:03:31;;;;;;;28.27;13.13;;;16.50;52.70;;;;;;4987233;28;20246;-75
2022/03/31 00:05:59;;;;;;;33.27;12.83;;;16.50;52.80;;;;;;4986212;28;20384;-75
2022/03/31 00:08:28;;;;;;;30.10;12.47;;;16.50;52.80;;;;;;4985930;28;20217;-75
2022/03/31 00:10:58;;;;;;;33.77;13.63;;;16.40;52.90;;;;;;4984786;28;20200;-76
2022/03/31 00:13:27;;;;;;;25.30;13.10;;;16.40;53.00;;;;;;4987399;28;20579;-76
2022/03/31 00:15:57;;;;;;;28.53;13.70;;;16.40;53.40;;;;;;4985391;28;20218;-76
2022/03/31 00:18:31;;;;;;;29.40;13.57;;;16.40;53.40;;;;;;4986213;28;20275;-75
2022/03/31 00:20:59;;;;;;;26.10;13.77;;;16.40;53.50;;;;;;4985796;28;20250;-76
2022/03/31 00:23:28;;;;;;;29.30;14.57;;;16.40;53.40;;;;;;4985906;28;20707;-75
2022/03/31 00:25:58;;;;;;;27.50;12.77;;;16.30;53.50;;;;;;4986347;28;20287;-76
2022/03/31 00:28:26;;;;;;;29.73;14.23;;;16.30;53.40;;;;;;4985879;28;20217;-76
2022/03/31 00:30:55;;;;;;;32.73;15.07;;;16.30;53.30;;;;;;4986120;28;20235;-75
2022/03/31 00:33:23;;;;;;;28.70;13.93;;;16.30;53.40;;;;;;4984132;28;20228;-76
2022/03/31 00:35:51;;;;;;;25.47;13.43;;;16.30;53.40;;;;;;4984711;28;20209;-76
2022/03/31 00:38:20;;;;;;;32.33;13.50;;;16.30;53.50;;;;;;4986569;28;20541;-76
2022/03/31 00:40:48;;;;;;;27.40;13.87;;;16.30;53.60;;;;;;4983704;28;20213;-76
2022/03/31 00:43:18;;;;;;;34.03;14.87;;;16.30;53.80;;;;;;4987076;28;20205;-76
2022/03/31 00:45:51;;;;;;;25.50;13.63;;;16.30;53.90;;;;;;4987334;28;20213;-76
2022/03/31 00:48:21;;;;;;;32.50;13.37;;;16.30;53.90;;;;;;4985370;28;20900;-76
2022/03/31 00:50:51;;;;;;;32.33;15.23;;;16.30;53.80;;;;;;4985903;28;20228;-77
2022/03/31 00:53:19;;;;;;;35.47;15.77;;;16.30;53.80;;;;;;4985622;28;20235;-76
2022/03/31 00:55:56;;;;;;;29.53;14.47;;;16.30;53.90;;;;;;4986108;28;20381;-76
2022/03/31 00:58:26;;;;;;;28.70;16.07;;;16.30;54.10;;;;;;4987169;28;20193;-77
2022/03/31 01:00:54;;;;;;;32.83;15.43;;;16.30;54.10;;;;;;4985824;28;20210;-76
2022/03/31 01:03:23;;;;;;;29.90;14.80;;;16.30;54.30;;;;;;4984507;28;20288;-75
2022/03/31 01:05:52;;;;;;;32.83;16.03;;;16.20;54.40;;;;;;4986024;28;20564;-75
2022/03/31 01:08:21;;;;;;;33.80;16.40;;;16.20;54.40;;;;;;4986854;28;20219;-75
2022/03/31 01:10:50;;;;;;;33.23;15.43;;;16.20;54.40;;;;;;4984494;28;20639;-76
2022/03/31 01:13:18;;;;;;;34.13;16.33;;;16.20;54.40;;;;;;4988065;28;20227;-76
2022/03/31 01:15:48;;;;;;;35.17;16.10;;;16.20;54.40;;;;;;4987055;28;20205;-76
2022/03/31 01:18:16;;;;;;;38.07;16.60;;;16.20;54.40;;;;;;4984835;28;20196;-75
2022/03/31 01:20:45;;;;;;;32.47;15.80;;;16.20;54.40;;;;;;4986468;28;20236;-75
2022/03/31 01:23:15;;;;;;;33.17;17.60;;;16.20;54.40;;;;;;4986099;28;20307;-76
2022/03/31 01:25:44;;;;;;;39.40;16.67;;;16.20;54.30;;;;;;4985828;28;21099;-76
2022/03/31 01:28:12;;;;;;;32.77;17.03;;;16.20;54.30;;;;;;4983867;28;20219;-75
2022/03/31 01:30:41;;;;;;;38.17;16.30;;;16.20;54.30;;;;;;4986250;28;20203;-76
2022/03/31 01:33:10;;;;;;;41.47;16.93;;;16.20;54.50;;;;;;4981880;28;20201;-75
2022/03/31 01:35:39;;;;;;;36.60;17.17;;;16.10;54.70;;;;;;4983767;28;20200;-75
2022/03/31 01:38:08;;;;;;;38.77;17.87;;;16.10;54.80;;;;;;4986356;28;20200;-76
2022/03/31 01:40:38;;;;;;;35.37;17.77;;;16.00;54.70;;;;;;4987550;28;21042;-76
2022/03/31 01:43:07;;;;;;;40.43;17.80;;;16.00;55.00;;;;;;4985924;28;20203;-76
2022/03/31 01:45:37;;;;;;;38.27;16.37;;;15.90;55.20;;;;;;4986585;28;20247;-76
2022/03/31 01:48:06;;;;;;;35.60;17.77;;;15.90;55.20;;;;;;4986120;28;20201;-77
2022/03/31 01:50:35;;;;;;;37.23;17.73;;;15.90;55.30;;;;;;4983658;28;20224;-76
2022/03/31 01:53:03;;;;;;;36.70;17.50;;;15.80;55.30;;;;;;4984889;28;20197;-77
2022/03/31 01:55:32;;;;;;;38.37;18.60;;;15.80;55.40;;;;;;4984551;28;20208;-77
2022/03/31 01:58:02;;;;;;;32.73;16.43;;;15.70;55.70;;;;;;4985634;28;20196;-75
2022/03/31 02:00:30;;;;;;;36.13;16.60;;;15.70;55.70;;;;;;4984109;28;20197;-75
2022/03/31 02:02:59;;;;;;;33.67;16.90;;;15.70;55.70;;;;;;4985225;28;20215;-76
2022/03/31 02:05:28;;;;;;;33.50;16.50;;;15.70;56.00;;;;;;4983358;28;20204;-75
2022/03/31 02:07:57;;;;;;;33.07;16.60;;;15.60;56.00;;;;;;4986272;28;20201;-76
2022/03/31 02:10:26;;;;;;;31.60;16.60;;;15.60;56.00;;;;;;4983761;28;20223;-75
2022/03/31 02:12:55;;;;;;;36.27;16.30;;;15.60;56.00;;;;;;4983673;28;20299;-75
2022/03/31 02:15:25;;;;;;;29.70;16.23;;;15.50;56.00;;;;;;4985064;28;20204;-75
2022/03/31 02:17:54;;;;;;;27.93;15.77;;;15.50;56.20;;;;;;4986600;28;20205;-75
2022/03/31 02:20:23;;;;;;;41.97;17.07;;;15.50;56.30;;;;;;4986257;28;20318;-75
2022/03/31 02:22:51;;;;;;;28.10;15.70;;;15.40;56.40;;;;;;4985025;28;20654;-75
2022/03/31 02:25:20;;;;;;;33.50;15.57;;;15.40;56.60;;;;;;4985604;28;21690;-75
2022/03/31 02:27:51;;;;;;;33.30;15.83;;;15.40;56.60;;;;;;4984368;28;20205;-75
2022/03/31 02:30:21;;;;;;;32.03;14.73;;;15.40;56.60;;;;;;4985198;28;20204;-75
2022/03/31 02:32:51;;;;;;;29.30;14.87;;;15.30;56.50;;;;;;4984240;28;20216;-75
2022/03/31 02:35:19;;;;;;;35.63;14.77;;;15.30;56.60;;;;;;4988714;28;20662;-75
2022/03/31 02:37:48;;;;;;;37.53;15.00;;;15.30;56.60;;;;;;4987416;28;20667;-75
2022/03/31 02:40:16;;;;;;;29.27;14.60;;;15.30;56.60;;;;;;4988843;28;20567;-75
2022/03/31 02:42:45;;;;;;;30.00;13.60;;;15.30;56.60;;;;;;4988215;28;20743;-75
2022/03/31 02:45:13;;;;;;;34.17;14.47;;;15.30;56.60;;;;;;4989924;28;20211;-75
2022/03/31 02:47:44;;;;;;;32.13;14.07;;;15.30;56.60;;;;;;4989029;28;20212;-75
2022/03/31 02:50:15;;;;;;;27.63;14.37;;;15.30;56.70;;;;;;4989538;28;20204;-76
2022/03/31 02:55:30;;;;;;;27.37;13.43;;;15.30;56.80;;;;;;4990709;28;20189;-76
2022/03/31 02:58:01;;;;;;;37.87;14.73;;;15.30;56.90;;;;;;4988816;28;20205;-75
2022/03/31 03:00:32;;;;;;;27.83;12.60;;;15.30;56.90;;;;;;4988860;28;20547;-75
2022/03/31 03:03:03;;;;;;;33.10;13.47;;;15.30;57.00;;;;;;4988368;28;20733;-75
2022/03/31 03:05:34;;;;;;;29.43;13.43;;;15.30;57.00;;;;;;4985795;28;20201;-76
2022/03/31 03:08:03;;;;;;;35.20;15.60;;;15.30;57.30;;;;;;4986592;28;20543;-75
2022/03/31 03:10:32;;;;;;;31.07;14.53;;;15.30;57.60;;;;;;4988272;28;20250;-76
2022/03/31 03:13:00;;;;;;;28.70;14.20;;;15.30;57.60;;;;;;4988373;28;20623;-76
2022/03/31 03:15:28;;;;;;;28.47;15.37;;;15.30;57.50;;;;;;4988336;28;20197;-75
2022/03/31 03:17:57;;;;;;;32.97;15.03;;;15.30;57.70;;;;;;4987172;28;20610;-75
2022/03/31 03:20:26;;;;;;;30.60;14.90;;;15.30;57.80;;;;;;4987967;28;20200;-76
2022/03/31 03:22:56;;;;;;;28.20;13.70;;;15.20;57.60;;;;;;4985120;28;20335;-75
2022/03/31 03:25:24;;;;;;;33.43;13.33;;;15.30;57.80;;;;;;4988382;28;20215;-76
2022/03/31 03:27:53;;;;;;;31.17;15.47;;;15.20;58.10;;;;;;4985690;28;21164;-75
2022/03/31 03:30:22;;;;;;;32.87;13.83;;;15.30;57.80;;;;;;4986929;28;20243;-75
2022/03/31 03:32:51;;;;;;;31.60;14.30;;;15.30;57.90;;;;;;4987882;28;20387;-76
2022/03/31 03:35:19;;;;;;;25.27;13.60;;;15.30;58.00;;;;;;4986585;28;20279;-75
2022/03/31 03:37:48;;;;;;;26.97;13.00;;;15.30;58.00;;;;;;4985800;28;20200;-75
2022/03/31 03:40:17;;;;;;;28.20;13.27;;;15.30;58.00;;;;;;4985500;28;20196;-76
2022/03/31 03:42:46;;;;;;;29.60;13.30;;;15.30;58.10;;;;;;4987767;28;20201;-75
2022/03/31 03:45:16;;;;;;;29.10;14.13;;;15.30;58.10;;;;;;4986444;28;20288;-77
2022/03/31 03:47:44;;;;;;;26.57;12.80;;;15.30;58.20;;;;;;4987829;28;20606;-74
2022/03/31 03:50:13;;;;;;;24.00;12.47;;;15.30;58.30;;;;;;4989041;28;20217;-75
2022/03/31 03:52:41;;;;;;;28.17;13.13;;;15.30;58.30;;;;;;4987538;28;20201;-75
2022/03/31 03:55:10;;;;;;;27.07;12.13;;;15.30;58.20;;;;;;4987076;28;20224;-74
2022/03/31 03:57:40;;;;;;;22.70;12.83;;;15.40;58.10;;;;;;4984336;28;20212;-76
2022/03/31 04:00:10;;;;;;;28.80;12.73;;;15.40;58.00;;;;;;4987277;28;20671;-75
2022/03/31 04:02:39;;;;;;;25.33;11.80;;;15.40;57.90;;;;;;4986451;28;20208;-75
2022/03/31 04:05:09;;;;;;;24.57;12.90;;;15.40;57.90;;;;;;4987274;28;20201;-75
2022/03/31 04:07:37;;;;;;;28.37;12.93;;;15.50;57.90;;;;;;4986711;28;20201;-75
2022/03/31 04:10:08;;;;;;;29.03;13.30;;;15.50;57.90;;;;;;4985667;28;20225;-75
2022/03/31 04:12:37;;;;;;;28.13;12.63;;;15.50;58.00;;;;;;4986176;28;20224;-77
2022/03/31 04:15:08;;;;;;;31.80;13.53;;;15.50;58.00;;;;;;4989033;28;20216;-76
2022/03/31 04:17:37;;;;;;;32.17;13.23;;;15.50;57.90;;;;;;4987834;28;20212;-76
2022/03/31 04:20:06;;;;;;;29.40;12.43;;;15.60;58.00;;;;;;4989120;28;20189;-75
2022/03/31 04:22:37;;;;;;;24.77;12.40;;;15.60;57.90;;;;;;4988869;28;20636;-76
2022/03/31 04:25:07;;;;;;;31.93;13.17;;;15.60;57.80;;;;;;4986395;28;20200;-76
2022/03/31 04:27:37;;;;;;;25.27;12.03;;;15.60;57.90;;;;;;4985970;28;20733;-76
2022/03/31 04:30:09;;;;;;;25.80;11.90;;;15.60;57.80;;;;;;4986357;28;20225;-77
2022/03/31 04:32:38;;;;;;;29.43;12.97;;;15.70;57.90;;;;;;4986296;28;20785;-76
2022/03/31 04:35:08;;;;;;;28.87;13.37;;;15.70;57.80;;;;;;4986902;28;20303;-76
2022/03/31 04:37:36;;;;;;;23.40;13.23;;;15.70;57.80;;;;;;4986367;28;20189;-75
2022/03/31 04:40:06;;;;;;;31.13;13.30;;;15.70;57.80;;;;;;4985392;28;20200;-75
2022/03/31 04:42:34;;;;;;;35.87;13.40;;;15.80;58.10;;;;;;4985490;28;20204;-75
2022/03/31 04:45:03;;;;;;;40.57;14.60;;;15.80;57.80;;;;;;4987107;28;20212;-75
2022/03/31 04:47:33;;;;;;;51.33;16.90;;;15.80;57.80;;;;;;4984397;28;20200;-76
2022/03/31 04:50:05;;;;;;;30.63;15.30;;;15.80;58.00;;;;;;4986950;28;20197;-76
2022/03/31 04:52:33;;;;;;;41.23;15.23;;;15.80;58.20;;;;;;4985568;28;20971;-76
2022/03/31 04:55:01;;;;;;;42.03;16.53;;;15.80;58.10;;;;;;4986647;28;20208;-76
2022/03/31 04:57:30;;;;;;;49.57;17.23;;;15.80;58.10;;;;;;4987445;28;20211;-76
2022/03/31 04:59:58;;;;;;;49.53;18.00;;;15.90;58.20;;;;;;4987678;28;20208;-76
2022/03/31 05:02:26;;;;;;;37.23;16.33;;;15.90;58.10;;;;;;4988306;28;20197;-76
2022/03/31 05:04:56;;;;;;;39.03;16.67;;;15.90;58.20;;;;;;4985844;28;20196;-75
2022/03/31 05:07:24;;;;;;;38.70;17.27;;;15.90;58.20;;;;;;4986509;28;20202;-75
2022/03/31 05:09:53;;;;;;;35.47;17.00;;;15.90;58.20;;;;;;4985490;28;20278;-76
2022/03/31 05:12:21;;;;;;;41.87;17.03;;;16.00;58.20;;;;;;4986552;28;20220;-75
2022/03/31 05:14:50;;;;;;;39.83;17.37;;;16.00;58.20;;;;;;4985774;28;20232;-75
2022/03/31 05:17:18;;;;;;;40.57;16.90;;;16.00;58.30;;;;;;4988155;28;20688;-76
2022/03/31 05:19:46;;;;;;;40.60;16.53;;;16.00;58.30;;;;;;4984552;28;20291;-75
2022/03/31 05:22:16;;;;;;;44.57;17.53;;;16.10;58.40;;;;;;4983258;28;20582;-75
2022/03/31 05:24:45;;;;;;;31.40;15.03;;;16.10;58.40;;;;;;4986763;28;20206;-75
2022/03/31 05:27:13;;;;;;;31.77;15.77;;;16.10;58.40;;;;;;4985047;28;20732;-75
2022/03/31 05:29:41;;;;;;;42.57;17.17;;;16.10;58.30;;;;;;4985886;28;20201;-75
2022/03/31 05:32:11;;;;;;;34.23;15.03;;;16.20;58.30;;;;;;4984596;28;20223;-75
2022/03/31 05:34:39;;;;;;;27.47;13.73;;;16.20;58.50;;;;;;4985619;28;20197;-75
2022/03/31 05:37:08;;;;;;;33.07;15.07;;;16.30;58.50;;;;;;4986965;28;20203;-74
2022/03/31 05:39:37;;;;;;;34.20;14.23;;;16.30;58.70;;;;;;4985639;28;20825;-74
2022/03/31 05:42:07;;;;;;;35.30;14.10;;;16.40;58.80;;;;;;4987290;28;20197;-74
2022/03/31 05:44:35;;;;;;;37.20;13.80;;;16.40;58.80;;;;;;4986111;28;20242;-75
2022/03/31 05:47:04;;;;;;;36.30;14.90;;;16.50;58.80;;;;;;4986481;28;20728;-76
2022/03/31 05:49:32;;;;;;;34.90;14.80;;;16.50;58.70;;;;;;4987632;28;20204;-75
2022/03/31 05:52:04;;;;;;;33.60;14.27;;;16.60;58.70;;;;;;4987042;28;20741;-77
2022/03/31 05:54:32;;;;;;;32.70;12.43;;;16.60;58.60;;;;;;4986375;28;20200;-77
2022/03/31 05:57:02;;;;;;;25.23;11.97;;;16.60;58.50;;;;;;4989507;28;20220;-76
2022/03/31 05:59:31;;;;;;;27.97;11.83;;;16.70;58.50;;;;;;4986197;28;20724;-77
2022/03/31 06:01:59;;;;;;;27.33;10.53;;;16.80;58.40;;;;;;4986376;28;20681;-76
2022/03/31 06:04:28;;;;;;;27.37;10.07;;;16.80;58.30;;;;;;4986265;28;20216;-76
2022/03/31 06:06:56;;;;;;;27.58;11.20;;;16.90;58.30;;;;;;4986879;28;20448;-76
2022/03/31 06:09:24;;;;;;;23.00;10.77;;;17.00;58.60;;;;;;4989153;28;20208;-77
2022/03/31 06:11:53;;;;;;;19.80;9.57;;;17.00;58.60;;;;;;4991702;28;20256;-75
2022/03/31 06:14:22;;;;;;;27.57;10.67;;;17.10;58.40;;;;;;4991148;28;20196;-75
2022/03/31 06:16:51;;;;;;;20.37;10.23;;;17.10;58.50;;;;;;4991468;28;20204;-77
2022/03/31 06:19:20;;;;;;;21.67;10.47;;;17.10;58.20;;;;;;4990283;28;20236;-76
2022/03/31 06:21:48;;;;;;;28.13;11.63;;;17.20;58.30;;;;;;4989598;28;20228;-77
2022/03/31 06:24:17;;;;;;;22.63;11.97;;;17.30;58.20;;;;;;4990224;28;20270;-76
2022/03/31 06:26:45;;;;;;;26.13;12.00;;;17.40;58.20;;;;;;4990906;28;20208;-75
2022/03/31 06:29:14;;;;;;;20.17;10.40;;;17.50;58.10;;;;;;4989862;28;20215;-75
2022/03/31 06:31:43;;;;;;;27.80;11.98;;;17.60;57.90;;;;;;4989292;28;20455;-76
2022/03/31 06:34:12;;;;;;;20.43;10.93;;;17.70;57.80;;;;;;4989438;28;20859;-75
2022/03/31 06:36:40;;;;;;;32.77;13.03;;;17.70;57.70;;;;;;4990048;28;20209;-77
2022/03/31 06:39:09;;;;;;;44.43;15.00;;;17.80;57.70;;;;;;4990227;28;20192;-76
2022/03/31 06:41:37;;;;;;;39.63;14.80;;;17.90;57.70;;;;;;4991218;28;20211;-77
2022/03/31 06:44:07;;;;;;;31.93;13.97;;;17.90;57.50;;;;;;4991038;28;20202;-76
2022/03/31 06:46:36;;;;;;;46.00;15.20;;;18.00;57.50;;;;;;4989857;28;21161;-76
2022/03/31 06:49:06;;;;;;;38.40;15.27;;;18.10;57.40;;;;;;4991160;28;20205;-77
2022/03/31 06:51:35;;;;;;;34.00;14.83;;;18.20;57.40;;;;;;4990723;28;20213;-76
2022/03/31 06:54:03;;;;;;;37.10;15.87;;;18.20;57.30;;;;;;4990156;28;20192;-75
2022/03/31 06:56:32;;;;;;;36.83;14.13;;;18.30;57.60;;;;;;4989251;28;20207;-76
2022/03/31 06:59:02;;;;;;;35.73;13.67;;;18.30;57.40;;;;;;4990068;28;20227;-77
2022/03/31 07:01:30;;;;;;;41.23;15.87;;;18.30;57.30;;;;;;4989371;28;20655;-77
2022/03/31 07:03:59;;;;;;;28.83;13.00;;;18.40;57.40;;;;;;4990752;28;20227;-76
2022/03/31 07:06:29;;;;;;;36.60;13.73;;;18.40;57.30;;;;;;4991439;28;20290;-76
2022/03/31 07:08:57;;;;;;;34.67;13.67;;;18.40;57.10;;;;;;4989577;28;20200;-76
2022/03/31 07:11:26;;;;;;;40.30;13.77;;;18.50;57.10;;;;;;4990224;28;20201;-76
2022/03/31 07:13:54;;;;;;;32.57;12.70;;;18.60;57.00;;;;;;4989853;28;20202;-75
2022/03/31 07:16:23;;;;;;;34.40;12.53;;;18.70;57.00;;;;;;4988999;28;20212;-77
2022/03/31 07:18:51;;;;;;;28.40;12.20;;;18.80;56.90;;;;;;4987748;28;20211;-76
2022/03/31 07:21:20;;;;;;;32.03;12.67;;;18.90;56.70;;;;;;4988995;28;20237;-76
2022/03/31 07:23:49;;;;;;;29.27;12.67;;;19.00;56.50;;;;;;4992034;28;20209;-76
2022/03/31 07:26:18;;;;;;;36.13;13.80;;;19.00;56.20;;;;;;4988554;28;20201;-77
2022/03/31 07:28:46;;;;;;;33.63;14.17;;;19.00;56.10;;;;;;4988341;28;20197;-76
2022/03/31 07:31:15;;;;;;;30.33;10.90;;;19.10;56.20;;;;;;4988886;28;20215;-75
2022/03/31 07:33:43;;;;;;;26.77;10.80;;;19.20;56.10;;;;;;4988702;28;20240;-75
2022/03/31 07:36:12;;;;;;;24.43;10.90;;;19.20;56.10;;;;;;4989435;28;20204;-75
2022/03/31 07:38:41;;;;;;;29.53;8.50;;;19.30;55.90;;;;;;4989409;28;20216;-75
2022/03/31 07:41:13;;;;;;;19.57;8.60;;;19.40;55.70;;;;;;4988722;28;20205;-75
2022/03/31 07:43:42;;;;;;;28.00;8.93;;;19.40;55.20;;;;;;4987752;28;20666;-74
2022/03/31 07:46:11;;;;;;;31.33;9.13;;;19.50;55.20;;;;;;4987628;28;20208;-74
2022/03/31 07:48:39;;;;;;;21.20;8.93;;;19.50;54.90;;;;;;4988204;28;20283;-75
2022/03/31 07:51:08;;;;;;;28.27;8.67;;;19.60;54.20;;;;;;4988550;28;20216;-74
2022/03/31 07:53:36;;;;;;;21.47;7.73;;;19.60;54.20;;;;;;4989876;28;20221;-76
2022/03/31 07:56:06;;;;;;;25.87;8.57;;;19.70;54.00;;;;;;4989527;28;20223;-74
2022/03/31 07:58:36;;;;;;;35.40;8.20;;;19.80;53.90;;;;;;4987970;28;20212;-76
2022/03/31 08:01:04;;;;;;;26.93;8.07;;;19.80;54.20;;;;;;4988853;28;20220;-74
2022/03/31 08:03:33;;;;;;;21.30;7.83;;;19.80;53.60;;;;;;4989359;28;20646;-76
2022/03/31 08:06:01;;;;;;;27.23;8.90;;;19.90;53.60;;;;;;4987812;28;20215;-75
2022/03/31 08:08:30;;;;;;;28.43;8.70;;;20.00;53.30;;;;;;4987038;28;20204;-76
2022/03/31 08:10:58;;;;;;;24.93;7.57;;;20.00;53.20;;;;;;4988277;28;20205;-74
2022/03/31 08:13:28;;;;;;;21.80;7.33;;;20.10;53.40;;;;;;4987073;28;20225;-76
2022/03/31 08:15:58;;;;;;;21.83;7.30;;;20.10;52.80;;;;;;4988792;28;20205;-76
2022/03/31 08:18:29;;;;;;;20.27;7.20;;;20.10;52.70;;;;;;4989279;28;20315;-75
2022/03/31 08:20:58;;;;;;;27.83;7.67;;;20.20;53.00;;;;;;4987579;28;20310;-74
2022/03/31 08:23:26;;;;;;;22.23;7.53;;;20.30;53.10;;;;;;4989644;28;20208;-74
2022/03/31 08:25:56;;;;;;;19.60;8.17;;;20.30;52.80;;;;;;4987864;28;20197;-76
2022/03/31 08:28:25;;;;;;;28.13;7.83;;;20.40;53.00;;;;;;4987134;28;20682;-75
2022/03/31 08:30:54;;;;;;;23.67;7.60;;;20.50;52.80;;;;;;4988396;28;20834;-75
2022/03/31 08:33:24;;;;;;;21.17;7.87;;;20.60;52.80;;;;;;4988306;28;20880;-76
2022/03/31 08:35:52;;;;;;;21.57;6.77;;;20.70;52.60;;;;;;4989441;28;20192;-76
2022/03/31 08:38:21;;;;;;;26.77;7.90;;;20.80;52.60;;;;;;4987138;28;20205;-74
2022/03/31 08:40:50;;;;;;;19.90;7.23;;;20.80;52.20;;;;;;4988080;28;20302;-74
2022/03/31 08:43:19;;;;;;;20.57;6.93;;;20.80;52.20;;;;;;4989341;28;20193;-75
2022/03/31 08:45:55;;;;;;;18.10;6.00;;;20.90;52.30;;;;;;4986204;28;20202;-74
2022/03/31 08:48:26;;;;;;;20.00;6.20;;;21.00;52.50;;;;;;4987770;28;20197;-76
2022/03/31 08:50:54;;;;;;;17.70;7.00;;;21.00;52.40;;;;;;4988406;28;20292;-74
2022/03/31 08:53:23;;;;;;;18.80;6.07;;;21.00;51.60;;;;;;4988448;28;20233;-75
2022/03/31 08:55:51;;;;;;;17.77;6.60;;;21.00;51.40;;;;;;4987512;28;20208;-74
2022/03/31 08:58:20;;;;;;;15.27;5.87;;;21.00;51.10;;;;;;4988171;28;21811;-76
2022/03/31 09:00:48;;;;;;;21.13;6.57;;;21.10;51.20;;;;;;4987791;28;20211;-74
2022/03/31 09:03:17;;;;;;;25.70;6.77;;;21.10;51.20;;;;;;4986151;28;20199;-75
2022/03/31 09:05:50;;;;;;;19.90;6.33;;;21.10;51.80;;;;;;4987453;28;20200;-74
2022/03/31 09:08:19;;;;;;;19.93;6.77;;;21.20;51.20;;;;;;4987356;28;20873;-75
2022/03/31 09:10:49;;;;;;;31.00;8.27;;;21.20;51.30;;;;;;4987375;28;20200;-75
2022/03/31 09:13:20;;;;;;;23.23;7.07;;;21.30;51.30;;;;;;4987943;28;20291;-74
2022/03/31 09:15:51;;;;;;;13.97;5.40;;;21.20;51.00;;;;;;4987917;28;20197;-75
2022/03/31 09:18:20;;;;;;;23.47;7.37;;;21.20;51.00;;;;;;4987263;28;20862;-75
2022/03/31 09:20:54;;;;;;;27.23;5.70;;;21.20;51.10;;;;;;4988163;28;20240;-75
2022/03/31 09:23:23;;;;;;;27.67;6.27;;;21.20;51.20;;;;;;4988886;28;20223;-75
2022/03/31 09:25:52;;;;;;;16.37;6.00;;;21.30;51.20;;;;;;4985990;28;20201;-76
2022/03/31 09:28:22;;;;;;;18.77;5.37;;;21.40;51.30;;;;;;4986993;28;20212;-74
2022/03/31 09:30:54;;;;;;;19.33;6.33;;;21.40;50.80;;;;;;4989005;28;20207;-75
2022/03/31 09:33:33;;;;;;;20.83;6.13;;;21.50;50.70;;;;;;4987982;28;20209;-75
2022/03/31 09:36:06;;;;;;;19.27;6.73;;;21.60;50.80;;;;;;4988097;28;20827;-74
2022/03/31 09:38:37;;;;;;;18.88;6.00;;;21.70;50.70;;;;;;4987890;28;20219;-75
2022/03/31 09:41:18;;;;;;;15.73;6.30;;;21.80;50.80;;;;;;4986749;28;20674;-74
2022/03/31 09:43:48;;;;;;;23.07;6.37;;;21.90;50.70;;;;;;4986438;28;20193;-75
2022/03/31 09:46:24;;;;;;;13.93;5.90;;;22.10;50.40;;;;;;4987802;28;20193;-76
2022/03/31 09:48:59;;;;;;;15.50;6.97;;;22.20;50.00;;;;;;4987357;28;20200;-76
2022/03/31 09:51:29;;;;;;;18.20;6.03;;;22.30;50.10;;;;;;4988791;28;20215;-76
2022/03/31 09:53:57;;;;;;;18.40;5.43;;;22.40;49.50;;;;;;4986864;28;20444;-76
2022/03/31 09:56:26;;;;;;;12.77;4.90;;;22.50;49.10;;;;;;4986713;28;20791;-75
2022/03/31 09:59:01;;;;;;;18.10;5.65;;;22.60;48.50;;;;;;4988522;28;20517;-77
2022/03/31 10:01:30;;;;;;;18.10;5.93;;;22.60;47.90;;;;;;4988789;28;20206;-75
2022/03/31 10:03:59;;;;;;;18.38;5.60;;;22.50;47.60;;;;;;4987862;28;20287;-74
2022/03/31 10:06:29;;;;;;;17.15;5.07;;;22.60;48.20;;;;;;4988971;28;20311;-75
2022/03/31 10:08:59;;;;;;;16.25;4.63;;;22.60;48.10;;;;;;4988440;28;20189;-76
2022/03/31 10:11:29;;;;;;;14.80;4.45;;;22.70;47.90;;;;;;4987490;28;20205;-74
2022/03/31 10:14:27;;;;;;;22.98;4.82;;;22.70;47.30;;;;;;4987408;28;20205;-76
2022/03/31 10:16:58;;;;;;;12.90;4.40;;;22.90;47.40;;;;;;4982792;28;20631;-76
2022/03/31 10:19:28;;;;;;;20.10;4.32;;;23.00;47.30;;;;;;4984997;28;20208;-72
2022/03/31 10:22:01;;;;;;;20.70;5.38;;;23.10;47.30;;;;;;4987020;28;20237;-75
2022/03/31 10:24:42;;;;;;;19.33;4.90;;;23.20;46.80;;;;;;4988253;28;20197;-76
2022/03/31 10:27:26;;;;;;;16.88;4.15;;;23.20;46.70;;;;;;4986397;28;20201;-75
2022/03/31 10:29:55;;;;;;;15.15;4.53;;;23.20;46.30;;;;;;4987572;28;20590;-74
2022/03/31 10:32:25;;;;;;;22.50;4.82;;;23.20;46.40;;;;;;4987487;28;20563;-73
2022/03/31 10:34:55;;;;;;;14.85;4.75;;;23.20;46.40;;;;;;4985382;28;20611;-74
2022/03/31 10:37:36;;;;;;;18.83;4.85;;;23.20;46.30;;;;;;4987978;28;20204;-75
2022/03/31 10:40:10;;;;;;;15.07;4.40;;;23.20;46.10;;;;;;4987459;28;20197;-75
2022/03/31 10:42:39;;;;;;;16.83;4.28;;;23.10;46.30;;;;;;4986770;28;20200;-75
2022/03/31 10:45:12;;;;;;;17.30;5.18;;;23.10;46.60;;;;;;4984992;28;20201;-75
2022/03/31 10:47:42;;;;;;;18.05;5.22;;;23.00;46.80;;;;;;4987591;28;20196;-75
2022/03/31 10:50:24;;;;;;;14.35;4.63;;;23.00;46.80;;;;;;4986154;28;20393;-75
2022/03/31 10:53:04;;;;;;;14.52;4.97;;;22.90;46.90;;;;;;4986839;28;20201;-75
2022/03/31 10:55:49;;;;;;;20.17;4.90;;;22.90;46.90;;;;;;4989717;28;20197;-75
2022/03/31 10:58:27;;;;;;;16.33;4.63;;;22.90;47.00;;;;;;4990045;28;20677;-76
2022/03/31 11:00:58;;;;;;;13.70;3.60;;;22.80;46.80;;;;;;4986690;28;20203;-75
2022/03/31 11:03:27;;;;;;;18.85;4.50;;;22.80;47.00;;;;;;4990098;28;20563;-74
2022/03/31 11:05:59;;;;;;;11.98;3.88;;;22.80;47.20;;;;;;4988125;28;20643;-74
2022/03/31 11:08:43;;;;;;;14.43;3.45;;;22.80;47.30;;;;;;4989133;28;20669;-74
2022/03/31 11:11:20;;;;;;;18.95;3.83;;;22.70;46.90;;;;;;4987718;28;20212;-74
2022/03/31 11:13:49;;;;;;;16.92;3.50;;;22.70;46.30;;;;;;4987628;28;20220;-75
2022/03/31 11:16:18;;;;;;;12.48;3.95;;;22.70;45.30;;;;;;4987187;28;20197;-73
2022/03/31 11:18:54;;;;;;;12.48;4.28;;;22.60;45.00;;;;;;4989581;28;20207;-75
2022/03/31 11:21:25;;;;;;;20.40;4.18;;;22.60;45.30;;;;;;4987404;28;20367;-76
2022/03/31 11:23:57;;;;;;;15.27;3.97;;;22.60;45.40;;;;;;4988430;28;20750;-75
2022/03/31 11:26:27;;;;;;;18.90;4.13;;;22.60;45.60;;;;;;4987722;28;20201;-74
2022/03/31 11:28:56;;;;;;;14.55;3.70;;;22.60;45.80;;;;;;4988774;28;20205;-75
2022/03/31 11:31:25;;;;;;;13.90;3.30;;;22.60;46.20;;;;;;4986804;28;20197;-75
2022/03/31 11:33:55;;;;;;;17.63;3.80;;;22.50;46.30;;;;;;4986514;28;20252;-74
2022/03/31 11:36:25;;;;;;;14.75;3.70;;;22.50;46.30;;;;;;4989509;28;20205;-75
2022/03/31 11:39:00;;;;;;;16.27;4.68;;;22.50;46.50;;;;;;4989090;28;20207;-75
2022/03/31 11:41:39;;;;;;;11.75;3.75;;;22.50;46.80;;;;;;4988032;28;20196;-76
2022/03/31 11:44:21;;;;;;;13.63;4.25;;;22.50;47.00;;;;;;4988598;28;20284;-75
2022/03/31 11:46:50;;;;;;;12.85;3.78;;;22.50;47.20;;;;;;4988700;28;20787;-75
2022/03/31 11:49:21;;;;;;;12.38;2.72;;;22.60;47.20;;;;;;4989199;28;20207;-75
2022/03/31 11:51:50;;;;;;;18.25;3.78;;;22.60;47.30;;;;;;4990006;28;20211;-75
2022/03/31 11:54:21;;;;;;;20.35;3.92;;;22.70;47.30;;;;;;4987065;28;20228;-74
2022/03/31 11:57:02;;;;;;;20.92;4.30;;;22.80;47.20;;;;;;4989028;28;20204;-74
2022/03/31 11:59:31;;;;;;;16.30;3.33;;;22.90;47.30;;;;;;4988456;28;20192;-78
2022/03/31 12:02:00;;;;;;;23.63;3.78;;;23.10;47.30;;;;;;4987786;28;20201;-76
2022/03/31 12:04:30;;;;;;;18.10;3.47;;;23.20;47.40;;;;;;4988835;28;20196;-76
2022/03/31 12:07:02;;;;;;;16.67;3.90;;;23.20;47.40;;;;;;4987237;28;20204;-73
2022/03/31 12:09:32;;;;;;;21.42;4.40;;;23.20;47.60;;;;;;4986894;28;20196;-73
2022/03/31 12:12:01;;;;;;;13.20;3.28;;;23.20;47.60;;;;;;4986592;28;20208;-74
2022/03/31 12:14:30;;;;;;;13.88;3.83;;;23.20;47.80;;;;;;4987788;28;20220;-72
2022/03/31 12:17:00;;;;;;;27.83;3.70;;;23.20;47.80;;;;;;4986924;28;20189;-73
2022/03/31 12:19:38;;;;;;;11.98;3.03;;;23.20;48.00;;;;;;4988729;28;20278;-73
2022/03/31 12:22:09;;;;;;;9.32;3.08;;;23.20;48.10;;;;;;4986081;28;20239;-73
2022/03/31 12:24:48;;;;;;;14.25;3.28;;;23.30;48.10;;;;;;4986540;28;20192;-73
2022/03/31 12:27:18;;;;;;;14.40;3.22;;;23.30;48.80;;;;;;4986986;28;20199;-73
2022/03/31 12:29:59;;;;;;;16.13;3.60;;;23.30;48.20;;;;;;4987879;28;20202;-72
2022/03/31 12:32:34;;;;;;;21.00;3.63;;;23.40;48.40;;;;;;4985681;28;20201;-73
2022/03/31 12:35:05;;;;;;;16.95;3.47;;;23.40;48.40;;;;;;4986882;28;20218;-73
2022/03/31 12:37:38;;;;;;;16.25;3.70;;;23.40;48.50;;;;;;4986340;28;20201;-72
2022/03/31 12:40:11;;;;;;;14.95;3.33;;;23.30;48.60;;;;;;4987840;28;20204;-74
2022/03/31 12:42:50;;;;;;;17.35;2.97;;;23.30;48.50;;;;;;4988789;28;20193;-74
2022/03/31 12:45:18;;;;;;;18.17;3.67;;;23.30;48.50;;;;;;4986518;28;20188;-74
2022/03/31 12:47:47;;;;;;;15.65;3.75;;;23.30;48.60;;;;;;4984520;28;20764;-74